Time;durP1;ratioP1;P1;durP2;ratioP2;P2;SDS_P1;SDS_P2;PMS_P1;PMS_P2;Temp;Humidity;BMP_temperature;BMP_pressure;BME280_temperature;BME280_humidity;BME280_pressure;Samples;Min_cycle;Max_cycle;Signal;HPM_P1;HPM_P2
2023/07/20 00:00:53;;;;;;;2.83;1.17;;;;;;;15.86;100.00;100337.53;7688262;23;20051;-94
2023/07/20 00:03:55;;;;;;;1.23;1.10;;;;;;;15.80;100.00;100340.78;7739501;23;20144;-94
2023/07/20 00:07:00;;;;;;;1.90;1.15;;;;;;;15.91;100.00;100343.91;7711563;23;20020;-94
2023/07/20 00:10:03;;;;;;;1.42;1.33;;;;;;;15.82;100.00;100341.44;7711066;23;20096;-94
2023/07/20 00:13:05;;;;;;;1.52;1.02;;;;;;;15.76;100.00;100340.28;7737954;23;20154;-95
2023/07/20 00:16:07;;;;;;;1.75;1.15;;;;;;;15.61;100.00;100324.41;7711296;23;20047;-94
2023/07/20 00:19:10;;;;;;;1.58;1.27;;;;;;;15.58;100.00;100322.09;7738032;23;20083;-94
2023/07/20 00:22:13;;;;;;;1.15;1.05;;;;;;;15.36;100.00;100320.88;7738216;23;20664;-93
2023/07/20 00:25:15;;;;;;;1.35;1.20;;;;;;;15.34;100.00;100324.63;7738595;23;20020;-94
2023/07/20 00:28:17;;;;;;;1.42;1.15;;;;;;;15.29;100.00;100317.28;7712190;23;20016;-93
2023/07/20 00:31:19;;;;;;;1.58;1.23;;;;;;;15.20;100.00;100316.41;7738549;23;20024;-94
2023/07/20 00:34:21;;;;;;;1.50;1.40;;;;;;;15.22;100.00;100321.47;7738435;23;20024;-94
2023/07/20 00:37:23;;;;;;;1.48;1.38;;;;;;;15.24;100.00;100317.75;7686115;23;20131;-93
2023/07/20 00:40:26;;;;;;;1.10;0.95;;;;;;;15.14;100.00;100318.84;7713569;23;20024;-94
2023/07/20 00:43:28;;;;;;;2.25;1.48;;;;;;;15.22;100.00;100319.69;7738995;23;20117;-93
2023/07/20 00:46:32;;;;;;;1.30;1.20;;;;;;;15.06;100.00;100320.44;7740814;23;20323;-94
2023/07/20 00:49:35;;;;;;;1.58;1.33;;;;;;;15.17;100.00;100323.75;7740220;23;20759;-94
2023/07/20 00:52:41;;;;;;;1.30;1.20;;;;;;;15.23;100.00;100318.72;7741002;23;20059;-94
2023/07/20 00:55:44;;;;;;;1.95;1.20;;;;;;;15.26;100.00;100309.78;7740798;23;20116;-93
2023/07/20 00:58:46;;;;;;;1.45;1.08;;;;;;;15.25;100.00;100305.50;7688789;23;20564;-93
2023/07/20 01:01:48;;;;;;;1.00;0.90;;;;;;;15.21;100.00;100305.03;7741096;23;20442;-93
2023/07/20 01:04:50;;;;;;;1.23;1.10;;;;;;;15.16;100.00;100306.47;7741503;23;20043;-94
2023/07/20 01:07:58;;;;;;;1.45;1.00;;;;;;;15.17;100.00;100306.28;7741062;23;20024;-93
2023/07/20 01:11:21;;;;;;;0.88;0.88;;;;;;;14.88;100.00;100311.88;7713651;23;20020;-93
2023/07/20 01:14:25;;;;;;;3.55;1.20;;;;;;;14.77;100.00;100320.75;7741392;23;20516;-93
2023/07/20 01:17:27;;;;;;;1.30;1.20;;;;;;;14.73;100.00;100316.84;7714673;23;20449;-94
2023/07/20 01:20:31;;;;;;;1.30;1.20;;;;;;;14.87;100.00;100320.66;7689394;23;20035;-92
2023/07/20 01:24:04;;;;;;;1.40;1.30;;;;;;;14.96;100.00;100308.50;7713946;23;20103;-93
2023/07/20 01:27:36;;;;;;;1.67;1.20;;;;;;;15.05;100.00;100312.75;7741004;23;20171;-93
2023/07/20 01:30:52;;;;;;;1.38;1.27;;;;;;;15.14;100.00;100311.00;7737834;23;20706;-93
2023/07/20 01:33:57;;;;;;;1.13;1.02;;;;;;;15.16;100.00;100322.94;7738850;23;20023;-93
2023/07/20 01:37:01;;;;;;;2.13;1.42;;;;;;;15.21;100.00;100320.66;7713356;23;20020;-93
2023/07/20 01:40:03;;;;;;;1.73;1.23;;;;;;;15.20;100.00;100313.78;7740358;23;20522;-93
2023/07/20 01:43:05;;;;;;;1.77;1.05;;;;;;;15.23;100.00;100310.09;7740559;23;20023;-94
2023/07/20 01:46:07;;;;;;;1.70;1.13;;;;;;;15.23;100.00;100317.91;7740834;23;20047;-93
2023/07/20 01:49:10;;;;;;;1.80;1.40;;;;;;;15.23;100.00;100318.72;7712755;23;20095;-93
2023/07/20 01:52:12;;;;;;;1.02;0.93;;;;;;;15.27;100.00;100322.63;7712987;23;20024;-93
2023/07/20 01:55:14;;;;;;;0.80;0.77;;;;;;;15.33;100.00;100309.94;7741091;23;20016;-93
2023/07/20 01:58:16;;;;;;;2.42;0.98;;;;;;;15.32;100.00;100316.13;7740121;23;20123;-93
2023/07/20 02:01:18;;;;;;;1.50;1.02;;;;;;;15.36;100.00;100314.88;7712995;23;20028;-93
2023/07/20 02:04:20;;;;;;;1.15;1.05;;;;;;;15.37;100.00;100311.25;7740360;23;20015;-94
2023/07/20 02:07:23;;;;;;;1.13;0.98;;;;;;;15.34;100.00;100312.41;7712880;23;20031;-94
2023/07/20 02:10:25;;;;;;;1.10;1.00;;;;;;;15.31;100.00;100304.09;7740258;23;20062;-93
2023/07/20 02:13:27;;;;;;;1.20;1.10;;;;;;;15.24;100.00;100306.50;7713373;23;20024;-93
2023/07/20 02:16:29;;;;;;;1.10;1.00;;;;;;;15.16;100.00;100303.88;7739675;23;20052;-93
2023/07/20 02:19:31;;;;;;;1.23;1.05;;;;;;;15.07;100.00;100308.22;7739857;23;20091;-93
2023/07/20 02:22:34;;;;;;;1.10;0.93;;;;;;;14.93;100.00;100307.00;7739688;23;20075;-93
2023/07/20 02:25:35;;;;;;;1.00;0.82;;;;;;;14.85;100.00;100312.97;7739437;23;20031;-93
2023/07/20 02:28:38;;;;;;;0.82;0.82;;;;;;;14.74;100.00;100309.81;7712273;23;20091;-93
2023/07/20 02:31:39;;;;;;;1.35;0.90;;;;;;;14.70;100.00;100314.50;7738880;23;20020;-93
2023/07/20 02:34:42;;;;;;;0.80;0.80;;;;;;;14.64;100.00;100318.56;7739549;23;20024;-93
2023/07/20 02:37:45;;;;;;;1.70;0.98;;;;;;;14.63;100.00;100316.94;7734772;23;20042;-93
2023/07/20 02:40:47;;;;;;;1.75;0.80;;;;;;;14.71;100.00;100313.56;7739483;23;20026;-93
2023/07/20 02:43:49;;;;;;;0.93;0.85;;;;;;;14.82;100.00;100313.28;7712259;23;20031;-94
2023/07/20 02:46:51;;;;;;;1.33;0.90;;;;;;;14.51;100.00;100312.91;7712016;23;20123;-93
2023/07/20 02:49:53;;;;;;;1.30;1.13;;;;;;;14.82;100.00;100317.69;7714623;23;20467;-93
2023/07/20 02:52:55;;;;;;;0.70;0.70;;;;;;;14.81;100.00;100311.66;7741407;23;20221;-93
2023/07/20 02:55:58;;;;;;;0.82;0.82;;;;;;;15.05;100.00;100317.97;7741828;23;20446;-93
2023/07/20 02:59:06;;;;;;;0.82;0.70;;;;;;;15.13;100.00;100305.00;7714880;23;20609;-93
2023/07/20 03:02:15;;;;;;;2.08;1.02;;;;;;;15.25;100.00;100305.50;7714248;23;20028;-93
2023/07/20 03:05:17;;;;;;;0.60;0.60;;;;;;;15.33;100.00;100309.94;7714606;23;20024;-93
2023/07/20 03:08:19;;;;;;;1.95;0.90;;;;;;;15.36;100.00;100310.47;7741781;23;20074;-93
2023/07/20 03:11:21;;;;;;;4.28;0.85;;;;;;;15.41;100.00;100316.00;7713880;23;20473;-94
2023/07/20 03:14:23;;;;;;;1.80;0.82;;;;;;;15.36;100.00;100310.47;7741771;23;20020;-93
2023/07/20 03:17:26;;;;;;;2.15;0.88;;;;;;;15.10;100.00;100314.91;7713798;23;20020;-93
2023/07/20 03:20:28;;;;;;;1.27;0.70;;;;;;;14.99;100.00;100319.41;7739748;23;20494;-94
2023/07/20 03:23:30;;;;;;;1.95;0.68;;;;;;;15.26;100.00;100322.81;7741198;23;20027;-93
2023/07/20 03:26:32;;;;;;;3.33;1.05;;;;;;;15.01;100.00;100325.28;7741057;23;20098;-94
2023/07/20 03:29:35;;;;;;;1.23;0.80;;;;;;;15.01;100.00;100322.69;7714155;23;20024;-93
2023/07/20 03:32:37;;;;;;;0.70;0.70;;;;;;;15.01;100.00;100327.91;7713866;23;20439;-93
2023/07/20 03:35:42;;;;;;;0.75;0.70;;;;;;;15.15;100.00;100328.28;7742070;23;20031;-94
2023/07/20 03:38:45;;;;;;;0.80;0.80;;;;;;;15.03;100.00;100314.69;7714530;23;20047;-93
2023/07/20 03:41:47;;;;;;;2.33;0.77;;;;;;;15.15;100.00;100315.25;7714321;23;20117;-93
2023/07/20 03:44:50;;;;;;;0.80;0.60;;;;;;;15.19;100.00;100321.78;7715127;23;20031;-94
2023/07/20 03:47:52;;;;;;;1.33;0.73;;;;;;;15.20;100.00;100318.19;7742077;23;20470;-94
2023/07/20 03:50:55;;;;;;;0.98;0.70;;;;;;;15.19;100.00;100324.41;7714605;23;20024;-94
2023/07/20 03:53:58;;;;;;;1.15;0.63;;;;;;;15.15;100.00;100321.28;7690621;23;20107;-93
2023/07/20 03:57:00;;;;;;;0.60;0.60;;;;;;;15.70;100.00;100318.25;7741394;23;20020;-94
2023/07/20 04:00:06;;;;;;;1.85;0.77;;;;;;;15.80;100.00;100328.56;7714567;23;20020;-94
2023/07/20 04:03:14;;;;;;;1.60;0.75;;;;;;;15.87;100.00;100326.09;7741166;23;20028;-94
2023/07/20 04:06:17;;;;;;;2.25;0.77;;;;;;;15.89;100.00;100332.78;7741236;23;20016;-93
2023/07/20 04:09:19;;;;;;;0.70;0.70;;;;;;;15.85;100.00;100339.34;7714688;23;20101;-94
2023/07/20 04:12:22;;;;;;;1.33;1.13;;;;;;;15.77;100.00;100352.34;7714634;22;20027;-95
2023/07/20 04:15:23;;;;;;;3.15;0.95;;;;;;;15.58;100.00;100356.03;7714717;23;20074;-92
2023/07/20 04:18:25;;;;;;;2.92;1.10;;;;;;;15.23;100.00;100351.81;7714853;23;20123;-91
2023/07/20 04:21:27;;;;;;;1.98;0.98;;;;;;;15.03;100.00;100354.63;7741877;23;20095;-92
2023/07/20 04:24:30;;;;;;;1.60;1.10;;;;;;;14.97;100.00;100363.06;7714441;23;20031;-94
2023/07/20 04:27:31;;;;;;;1.67;0.90;;;;;;;14.91;100.00;100362.88;7714306;23;20031;-94
2023/07/20 04:30:35;;;;;;;1.10;1.00;;;;;;;14.86;100.00;100363.31;7741253;23;20438;-93
2023/07/20 04:33:37;;;;;;;1.27;1.10;;;;;;;14.83;100.00;100371.44;7714280;23;20098;-92
2023/07/20 04:36:39;;;;;;;1.55;1.38;;;;;;;14.95;100.00;100378.03;7713816;23;20477;-91
2023/07/20 04:39:41;;;;;;;1.33;1.23;;;;;;;14.81;100.00;100376.81;7714094;23;20023;-91
2023/07/20 04:42:46;;;;;;;1.50;1.35;;;;;;;14.77;100.00;100378.06;7713552;23;20446;-91
2023/07/20 04:45:48;;;;;;;1.67;1.38;;;;;;;14.72;100.00;100375.09;7741151;23;20398;-91
2023/07/20 04:48:50;;;;;;;1.83;1.52;;;;;;;14.77;100.00;100379.88;7714597;23;20020;-90
2023/07/20 04:51:52;;;;;;;2.38;1.55;;;;;;;14.81;100.00;100379.41;7713844;23;20030;-91
2023/07/20 04:54:54;;;;;;;1.90;1.38;;;;;;;14.88;100.00;100381.41;7713807;23;20031;-92
2023/07/20 04:57:56;;;;;;;2.45;1.80;;;;;;;14.94;100.00;100376.41;7713419;23;20020;-91
2023/07/20 05:00:59;;;;;;;2.28;1.98;;;;;;;15.01;100.00;100379.22;7712980;23;20035;-90
2023/07/20 05:04:01;;;;;;;5.13;2.10;;;;;;;14.50;100.00;100391.19;7713898;23;20549;-91
2023/07/20 05:07:03;;;;;;;2.42;2.08;;;;;;;14.55;100.00;100395.00;7688913;23;20342;-91
2023/07/20 05:10:05;;;;;;;3.90;2.42;;;;;;;14.62;100.00;100396.03;7740680;23;20042;-91
2023/07/20 05:13:08;;;;;;;3.65;2.60;;;;;;;14.96;100.00;100397.94;7713664;23;20066;-91
2023/07/20 05:16:09;;;;;;;4.35;3.00;;;;;;;15.09;100.00;100400.13;7740153;23;20442;-92
2023/07/20 05:19:11;;;;;;;7.03;2.72;;;;;;;15.11;100.00;100398.19;7689224;23;20774;-91
2023/07/20 05:22:14;;;;;;;4.43;3.20;;;;;;;15.15;100.00;100396.88;7714268;23;20450;-91
2023/07/20 05:25:18;;;;;;;3.05;2.75;;;;;;;15.18;100.00;100408.78;7690368;23;20024;-92
2023/07/20 05:28:20;;;;;;;4.22;3.65;;;;;;;15.14;100.00;100408.28;7743859;23;20052;-91
2023/07/20 05:31:22;;;;;;;3.65;3.08;;;;;;;15.09;100.00;100400.13;7716873;23;20020;-91
2023/07/20 05:34:24;;;;;;;4.13;3.30;;;;;;;15.19;100.00;100408.66;7743419;23;20040;-91
2023/07/20 05:37:25;;;;;;;5.15;3.60;;;;;;;15.22;100.00;100408.34;7742588;23;20012;-92
2023/07/20 05:40:28;;;;;;;4.60;3.03;;;;;;;15.31;100.00;100408.41;7741710;23;20020;-92
2023/07/20 05:43:30;;;;;;;3.45;3.10;;;;;;;15.33;100.00;100412.50;7742783;23;20113;-92
2023/07/20 05:46:32;;;;;;;5.53;3.35;;;;;;;15.38;100.00;100422.44;7743636;23;20016;-91
2023/07/20 05:49:47;;;;;;;5.72;3.58;;;;;;;15.32;100.00;100416.06;7743108;23;20020;-92
2023/07/20 05:52:53;;;;;;;3.00;2.67;;;;;;;15.31;100.00;100419.66;7716368;23;20028;-92
2023/07/20 05:55:55;;;;;;;3.67;2.60;;;;;;;15.33;100.00;100414.25;7742927;23;20079;-92
2023/07/20 05:58:57;;;;;;;4.75;2.60;;;;;;;15.40;100.00;100415.28;7743303;23;20016;-92
2023/07/20 06:01:59;;;;;;;2.70;2.50;;;;;;;15.65;100.00;100409.22;7743226;23;20020;-92
2023/07/20 06:05:01;;;;;;;2.97;2.50;;;;;;;15.80;100.00;100406.00;7743319;23;20019;-92
2023/07/20 06:08:03;;;;;;;2.90;2.55;;;;;;;15.37;100.00;100410.38;7742926;23;20023;-92
2023/07/20 06:11:05;;;;;;;3.45;2.80;;;;;;;15.29;100.00;100414.56;7742482;23;20023;-92
2023/07/20 06:14:06;;;;;;;4.35;2.83;;;;;;;15.35;100.00;100414.94;7742358;23;20024;-92
2023/07/20 06:17:08;;;;;;;4.45;3.03;;;;;;;15.50;100.00;100415.97;7716216;23;20020;-92
2023/07/20 06:20:11;;;;;;;4.00;3.22;;;;;;;16.14;100.00;100411.19;7743377;23;20366;-92
2023/07/20 06:23:13;;;;;;;4.07;3.20;;;;;;;16.27;100.00;100408.94;7715340;23;20529;-92
2023/07/20 06:26:15;;;;;;;3.58;3.20;;;;;;;16.38;100.00;100412.22;7742229;23;20509;-92
2023/07/20 06:29:17;;;;;;;4.80;3.05;;;;;;;16.45;100.00;100403.56;7742031;23;20020;-92
2023/07/20 06:32:20;;;;;;;3.50;2.67;;;;;;;16.55;100.00;100411.25;7715256;23;20028;-91
2023/07/20 06:35:23;;;;;;;3.28;2.97;;;;;;;16.62;100.00;100424.44;7689530;23;20051;-93
2023/07/20 06:38:25;;;;;;;3.45;3.15;;;;;;;16.58;100.00;100422.16;7742074;23;20024;-92
2023/07/20 06:41:30;;;;;;;3.05;2.80;;;;;;;16.50;100.00;100418.75;7741656;23;20020;-93
2023/07/20 06:44:35;;;;;;;3.40;3.10;;;;;;;16.62;100.00;100427.91;7740958;23;20016;-93
2023/07/20 06:47:40;;;;;;;4.22;3.45;;;;;;;16.83;100.00;100434.47;7740617;23;20026;-92
2023/07/20 06:50:43;;;;;;;5.07;3.70;;;;;;;17.16;100.00;100430.00;7713462;23;20031;-91
2023/07/20 06:53:45;;;;;;;5.97;4.10;;;;;;;17.60;100.00;100429.56;7740676;23;20446;-93
2023/07/20 06:56:46;;;;;;;4.32;3.58;;;;;;;17.74;100.00;100428.84;7741362;23;20016;-93
2023/07/20 07:00:03;;;;;;;5.38;3.80;;;;;;;17.84;100.00;100432.13;7740789;23;20124;-93
2023/07/20 07:03:06;;;;;;;4.15;3.63;;;;;;;18.11;100.00;100443.13;7713196;23;20020;-94
2023/07/20 07:06:09;;;;;;;4.45;4.05;;;;;;;18.58;100.00;100441.31;7713506;23;20020;-93
2023/07/20 07:09:11;;;;;;;4.45;3.65;;;;;;;18.71;100.00;100442.38;7740612;23;20028;-93
2023/07/20 07:12:14;;;;;;;5.15;4.53;;;;;;;18.74;100.00;100435.97;7741002;23;20026;-94
2023/07/20 07:15:15;;;;;;;3.13;2.40;;;;;;;18.71;100.00;100437.13;7740387;23;20027;-94
2023/07/20 07:18:20;;;;;;;5.10;3.40;;;;;;;18.69;100.00;100433.84;7714829;23;20391;-95
2023/07/20 07:21:22;;;;;;;5.40;4.07;;;;;;;18.67;100.00;100427.97;7740633;23;20020;-93
2023/07/20 07:24:24;;;;;;;5.53;3.85;;;;;;;18.74;100.00;100435.97;7714732;23;20106;-94
2023/07/20 07:27:31;;;;;;;4.70;4.30;;;;;;;18.58;100.00;100434.25;7714229;23;20441;-95
2023/07/20 07:30:33;;;;;;;6.75;5.18;;;;;;;18.27;100.00;100436.94;7713947;23;20058;-94
2023/07/20 07:33:36;;;;;;;7.90;6.07;;;;;;;18.16;100.00;100438.19;7741053;23;20019;-95
2023/07/20 07:36:38;;;;;;;6.35;5.75;;;;;;;18.04;100.00;100445.59;7741560;23;20020;-95
2023/07/20 07:39:40;;;;;;;6.40;5.88;;;;;;;17.89;100.00;100443.84;7714856;23;20024;-94
2023/07/20 07:42:42;;;;;;;7.30;5.85;;;;;;;17.53;100.00;100446.94;7741329;23;20111;-94
2023/07/20 07:45:44;;;;;;;6.18;5.65;;;;;;;17.25;100.00;100447.31;7741138;23;20114;-92
2023/07/20 07:48:47;;;;;;;6.07;5.47;;;;;;;17.15;100.00;100457.16;7713802;23;20024;-95
2023/07/20 07:51:49;;;;;;;6.45;5.85;;;;;;;17.20;100.00;100454.84;7714504;23;20031;-95
2023/07/20 07:54:52;;;;;;;6.15;4.90;;;;;;;17.44;100.00;100452.19;7713809;23;20035;-93
2023/07/20 07:57:54;;;;;;;4.68;4.28;;;;;;;17.82;100.00;100451.59;7740600;23;20066;-92
2023/07/20 08:00:56;;;;;;;6.07;4.55;;;;;;;18.47;100.00;100458.28;7689814;23;20016;-94
2023/07/20 08:03:58;;;;;;;5.38;3.95;;;;;;;19.12;100.00;100463.00;7715233;23;20022;-94
2023/07/20 08:07:02;;;;;;;4.40;4.00;;;;;;;19.30;100.00;100464.47;7740805;23;20020;-94
2023/07/20 08:10:05;;;;;;;3.00;2.80;;;;;;;18.97;100.00;100464.78;7741029;23;20012;-94
2023/07/20 08:13:07;;;;;;;3.72;3.42;;;;;;;18.59;100.00;100470.00;7715067;23;20438;-94
2023/07/20 08:16:11;;;;;;;4.18;3.78;;;;;;;18.46;100.00;100461.91;7715383;23;20020;-93
2023/07/20 08:19:15;;;;;;;5.35;3.45;;;;;;;18.31;100.00;100469.69;7741827;23;20023;-93
2023/07/20 08:22:17;;;;;;;3.33;3.03;;;;;;;18.10;100.00;100467.66;7741442;23;20020;-94
2023/07/20 08:25:19;;;;;;;4.05;3.65;;;;;;;17.87;100.00;100465.00;7741374;23;20023;-94
2023/07/20 08:28:21;;;;;;;3.40;3.10;;;;;;;17.78;100.00;100474.63;7741701;23;20032;-93
2023/07/20 08:31:23;;;;;;;2.10;2.00;;;;;;;17.77;100.00;100472.22;7741419;23;20031;-95
2023/07/20 08:34:26;;;;;;;3.17;2.88;;;;;;;17.76;100.00;100474.03;7741613;23;20044;-93
2023/07/20 08:37:32;;;;;;;2.75;2.03;;;;;;;17.83;100.00;100476.78;7742091;23;20504;-92
2023/07/20 08:40:43;;;;;;;2.70;2.45;;;;;;;17.90;100.00;100477.75;7741427;23;20026;-93
2023/07/20 08:43:46;;;;;;;2.38;2.10;;;;;;;17.93;100.00;100471.34;7714670;23;20467;-94
2023/07/20 08:46:49;;;;;;;2.38;1.40;;;;;;;18.14;100.00;100479.44;7689063;23;20024;-94
2023/07/20 08:49:52;;;;;;;2.40;2.20;;;;;;;18.37;100.00;100484.72;7713939;23;20039;-93
2023/07/20 08:52:57;;;;;;;2.88;1.80;;;;;;;18.71;100.00;100486.94;7739993;23;20514;-92
2023/07/20 08:56:00;;;;;;;2.80;1.63;;;;;;;19.19;100.00;100480.69;7714428;23;20094;-93
2023/07/20 08:59:02;;;;;;;2.00;1.50;;;;;;;19.54;100.00;100482.59;7741312;23;20044;-93
2023/07/20 09:02:06;;;;;;;1.35;1.25;;;;;;;19.57;100.00;100484.88;7743216;23;20020;-94
2023/07/20 09:05:18;;;;;;;1.02;0.93;;;;;;;19.31;100.00;100477.44;7715863;23;20020;-93
2023/07/20 09:08:21;;;;;;;1.88;1.17;;;;;;;19.15;100.00;100473.19;7714481;23;20028;-94
2023/07/20 09:11:24;;;;;;;2.03;1.10;;;;;;;19.47;100.00;100465.94;7690706;23;20238;-93
2023/07/20 09:14:31;;;;;;;2.40;1.48;;;;;;;19.63;100.00;100472.84;7715843;23;20180;-95
2023/07/20 09:17:34;;;;;;;1.30;1.20;;;;;;;19.46;100.00;100474.00;7743602;23;20020;-93
2023/07/20 09:20:38;;;;;;;1.13;1.00;;;;;;;19.32;100.00;100468.56;7744541;23;20320;-93
2023/07/20 09:23:40;;;;;;;1.92;1.25;;;;;;;18.78;100.00;100475.78;7717177;23;20031;-95
2023/07/20 09:26:50;;;;;;;1.88;1.40;;;;;;;18.73;100.00;100474.47;7742994;23;20020;-93
2023/07/20 09:29:53;;;;;;;1.30;1.20;;;;;;;18.88;100.00;100473.72;7716256;23;20024;-94
2023/07/20 09:32:55;;;;;;;2.45;1.50;;;;;;;19.08;100.00;100480.13;7743482;23;20141;-95
2023/07/20 09:36:03;;;;;;;2.25;1.10;;;;;;;19.37;100.00;100475.91;7743601;23;20022;-95
2023/07/20 09:39:24;;;;;;;1.77;0.90;;;;;;;19.68;100.00;100483.66;7721001;23;20040;-93
2023/07/20 09:42:30;;;;;;;0.73;0.73;;;;;;;19.69;100.00;100480.00;7743592;23;20434;-92
2023/07/20 09:45:39;;;;;;;1.33;0.93;;;;;;;19.40;100.00;100474.72;7692099;23;20063;-91
2023/07/20 09:48:59;;;;;;;3.08;1.10;;;;;;;19.12;100.00;100476.13;7743598;23;20020;-95
2023/07/20 09:52:05;;;;;;;1.05;1.00;;;;;;;19.16;100.00;100481.84;7716374;23;20031;-96
2023/07/20 09:55:08;;;;;;;1.38;1.00;;;;;;;19.29;100.00;100470.75;7742332;23;20596;-90
2023/07/20 09:58:11;;;;;;;2.28;1.00;;;;;;;19.31;100.00;100474.00;7743132;23;20090;-94
2023/07/20 10:01:17;;;;;;;1.67;0.80;;;;;;;19.44;100.00;100483.88;7742168;23;20019;-94
2023/07/20 10:04:21;;;;;;;1.95;0.85;;;;;;;19.67;100.00;100478.53;7742381;23;20043;-94
2023/07/20 10:07:27;;;;;;;0.95;0.95;;;;;;;19.92;100.00;100476.44;7742837;23;20412;-94
2023/07/20 10:10:31;;;;;;;0.90;0.90;;;;;;;20.18;100.00;100486.47;7742534;23;20020;-94
2023/07/20 10:13:38;;;;;;;2.28;0.80;;;;;;;20.35;100.00;100487.06;7742665;23;20182;-94
2023/07/20 10:16:49;;;;;;;0.60;0.60;;;;;;;20.73;100.00;100481.59;7715718;23;20130;-94
2023/07/20 10:19:56;;;;;;;1.15;0.75;;;;;;;20.99;100.00;100481.81;7742562;23;20024;-95
2023/07/20 10:23:00;;;;;;;0.90;0.75;;;;;;;21.01;100.00;100479.00;7742905;23;20090;-94
2023/07/20 10:26:05;;;;;;;2.97;1.13;;;;;;;21.27;100.00;100483.66;7715368;23;20028;-96
2023/07/20 10:29:08;;;;;;;0.98;0.88;;;;;;;21.45;100.00;100472.63;7743108;23;20027;-95
2023/07/20 10:32:11;;;;;;;0.73;0.73;;;;;;;21.58;100.00;100464.81;7691645;23;20024;-93
2023/07/20 10:35:17;;;;;;;0.85;0.73;;;;;;;21.67;100.00;100471.53;7716344;23;20031;-93
2023/07/20 10:38:20;;;;;;;1.27;0.93;;;;;;;21.63;100.00;100472.13;7716040;23;20030;-96
2023/07/20 10:41:28;;;;;;;1.48;0.73;;;;;;;21.62;100.00;100466.06;7742608;23;20020;-95
2023/07/20 10:44:31;;;;;;;0.47;0.47;;;;;;;21.59;100.00;100468.25;7716811;23;20020;-95
2023/07/20 10:47:45;;;;;;;1.60;0.52;;;;;;;21.58;100.00;100462.16;7742323;23;20020;-94
2023/07/20 10:51:11;;;;;;;0.70;0.70;;;;;;;21.51;100.00;100474.47;7715102;23;20027;-95
2023/07/20 10:54:16;;;;;;;1.85;0.60;;;;;;;21.34;100.00;100487.13;7742248;23;20203;-95
2023/07/20 10:57:33;;;;;;;2.85;0.90;;;;;;;20.89;100.00;100473.41;7743237;23;20364;-96
2023/07/20 11:00:35;;;;;;;1.20;0.73;;;;;;;20.52;100.00;100474.47;7741969;23;20043;-94
2023/07/20 11:03:39;;;;;;;0.95;0.80;;;;;;;20.34;100.00;100478.34;7742278;23;20016;-96
2023/07/20 11:06:45;;;;;;;2.15;0.65;;;;;;;20.40;100.00;100482.06;7715856;23;20095;-96
2023/07/20 11:09:47;;;;;;;0.73;0.73;;;;;;;20.58;100.00;100479.03;7741895;23;20016;-95
2023/07/20 11:13:17;;;;;;;3.58;0.90;;;;;;;21.03;100.00;100482.25;7741755;23;20026;-96
2023/07/20 11:16:31;;;;;;;2.15;0.80;;;;;;;21.16;100.00;100482.34;7742243;23;20020;-96
2023/07/20 11:19:36;;;;;;;1.33;0.80;;;;;;;21.11;100.00;100474.19;7715434;23;20541;-96
2023/07/20 11:22:41;;;;;;;0.60;0.60;;;;;;;21.26;100.00;100476.72;7714341;23;20035;-96
2023/07/20 11:25:44;;;;;;;1.55;0.80;;;;;;;21.55;100.00;100478.38;7742093;23;20599;-95
2023/07/20 11:28:54;;;;;;;1.58;0.90;;;;;;;21.59;100.00;100474.34;7741645;23;20016;-95
2023/07/20 11:31:56;;;;;;;2.88;0.80;;;;;;;21.38;100.00;100484.91;7742834;23;20019;-96
2023/07/20 11:34:59;;;;;;;1.25;0.73;;;;;;;21.34;100.00;100491.56;7742156;23;20446;-95
2023/07/20 11:38:01;;;;;;;0.77;0.77;;;;;;;21.43;100.00;100490.44;7741077;23;20027;-92
2023/07/20 11:41:04;;;;;;;3.05;1.23;;;;;;;21.64;100.00;100474.56;7741406;23;20046;-95
2023/07/20 11:44:07;;;;;;;2.13;0.80;;;;;;;21.82;100.00;100467.97;7714750;23;20696;-92
2023/07/20 11:47:18;;;;;;;1.30;0.70;;;;;;;21.78;100.00;100472.81;7740301;23;20074;-95
2023/07/20 11:50:20;;;;;;;1.23;0.80;;;;;;;21.37;100.00;100467.50;7742130;23;20016;-95
2023/07/20 11:53:24;;;;;;;1.15;0.68;;;;;;;21.27;100.00;100463.38;7714844;23;20024;-94
2023/07/20 11:56:26;;;;;;;0.98;0.80;;;;;;;21.07;100.00;100459.81;7742226;23;20075;-96
2023/07/20 11:59:28;;;;;;;0.95;0.95;;;;;;;21.00;100.00;100461.59;7739729;23;20024;-95
2023/07/20 12:02:32;;;;;;;1.35;0.82;;;;;;;20.76;100.00;100471.50;7741295;23;20447;-93
2023/07/20 12:05:34;;;;;;;1.60;0.88;;;;;;;21.05;100.00;100456.56;7714711;23;20027;-94
2023/07/20 12:08:57;;;;;;;1.50;0.70;;;;;;;21.46;100.00;100461.91;7741666;23;20350;-93
2023/07/20 12:12:11;;;;;;;0.95;0.77;;;;;;;21.71;100.00;100464.88;7741891;23;20020;-93
2023/07/20 12:15:26;;;;;;;3.47;1.40;;;;;;;22.00;100.00;100462.16;7715211;23;20030;-94
2023/07/20 12:18:34;;;;;;;1.05;0.82;;;;;;;22.30;100.00;100463.47;7740035;23;20020;-95
2023/07/20 12:21:39;;;;;;;1.60;0.77;;;;;;;22.49;100.00;100461.88;7714933;23;20016;-92
2023/07/20 12:24:41;;;;;;;1.33;0.95;;;;;;;22.45;100.00;100458.03;7741953;23;20343;-95
2023/07/20 12:27:44;;;;;;;1.10;0.80;;;;;;;22.68;100.00;100452.38;7715327;23;20020;-94
2023/07/20 12:30:56;;;;;;;1.33;0.75;;;;;;;22.75;100.00;100453.16;7742483;23;20020;-95
2023/07/20 12:33:59;;;;;;;1.40;0.70;;;;;;;22.58;100.00;100458.06;7715358;23;20399;-96
2023/07/20 12:37:03;;;;;;;1.13;0.88;;;;;;;22.12;100.00;100442.09;7744290;23;20020;-96
2023/07/20 12:40:10;;;;;;;0.73;0.73;;;;;;;22.25;100.00;100450.06;7743877;23;20016;-94
2023/07/20 12:43:12;;;;;;;0.80;0.60;;;;;;;22.66;100.00;100438.56;7717712;23;20654;-96
2023/07/20 12:46:15;;;;;;;1.77;0.60;;;;;;;23.04;92.59;100448.53;7744269;23;20139;-94
2023/07/20 12:49:17;;;;;;;1.17;0.65;;;;;;;22.94;91.54;100438.34;7744428;23;20094;-95
2023/07/20 12:52:19;;;;;;;0.85;0.55;;;;;;;23.02;91.40;100447.09;7744234;23;20020;-91
2023/07/20 12:55:21;;;;;;;2.15;0.60;;;;;;;23.02;94.00;100440.00;7716985;23;20046;-95
2023/07/20 12:58:23;;;;;;;4.68;1.30;;;;;;;23.17;94.11;100437.13;7739573;23;20020;-96
2023/07/20 13:01:25;;;;;;;0.98;0.63;;;;;;;23.03;97.80;100441.63;7741194;23;20055;-95
2023/07/20 13:04:27;;;;;;;1.65;0.85;;;;;;;22.94;97.69;100435.72;7715719;23;20102;-94
2023/07/20 13:07:31;;;;;;;1.08;0.70;;;;;;;22.81;98.28;100441.00;7741561;23;20020;-95
2023/07/20 13:10:38;;;;;;;0.68;0.60;;;;;;;22.67;100.00;100434.09;7716562;23;20022;-94
2023/07/20 13:13:40;;;;;;;1.27;0.50;;;;;;;22.77;100.00;100437.13;7715680;23;20475;-91
2023/07/20 13:16:42;;;;;;;1.02;0.65;;;;;;;23.04;100.00;100432.69;7742297;23;20240;-95
2023/07/20 13:19:44;;;;;;;2.63;0.60;;;;;;;23.97;100.00;100442.16;7742379;23;20020;-94
2023/07/20 13:22:47;;;;;;;0.88;0.60;;;;;;;24.78;89.22;100435.34;7715864;23;20066;-93
2023/07/20 13:25:49;;;;;;;0.80;0.80;;;;;;;25.05;80.43;100442.00;7742410;23;20020;-94
2023/07/20 13:28:52;;;;;;;0.80;0.70;;;;;;;24.62;80.25;100442.81;7742551;23;20024;-94
2023/07/20 13:31:56;;;;;;;0.80;0.60;;;;;;;24.02;85.37;100439.69;7714556;23;20031;-95
2023/07/20 13:34:58;;;;;;;0.50;0.50;;;;;;;23.20;87.06;100447.28;7741633;23;20413;-95
2023/07/20 13:38:01;;;;;;;0.90;0.75;;;;;;;22.48;85.29;100444.41;7741948;23;20057;-93
2023/07/20 13:41:03;;;;;;;0.60;0.60;;;;;;;22.02;90.26;100446.94;7714933;23;20390;-94
2023/07/20 13:44:05;;;;;;;2.45;0.90;;;;;;;21.68;93.03;100449.44;7742513;23;20079;-95
2023/07/20 13:47:08;;;;;;;0.73;0.60;;;;;;;21.79;98.94;100452.53;7714394;23;20027;-95
2023/07/20 13:50:12;;;;;;;1.90;0.70;;;;;;;22.46;100.00;100445.63;7715899;23;20028;-94
2023/07/20 13:53:27;;;;;;;1.77;0.90;;;;;;;23.92;99.10;100450.72;7714418;23;20170;-95
2023/07/20 13:56:32;;;;;;;2.30;0.85;;;;;;;24.48;92.33;100452.66;7743341;23;20031;-96
2023/07/20 13:59:34;;;;;;;1.98;0.70;;;;;;;24.40;85.02;100444.97;7742800;23;20020;-94
2023/07/20 14:02:37;;;;;;;4.55;0.90;;;;;;;24.75;90.23;100451.66;7741960;23;20721;-94
2023/07/20 14:05:43;;;;;;;1.60;0.82;;;;;;;25.17;88.86;100442.13;7740800;23;20023;-95